createdAt,value
2022-08-14T00:01:34.859Z,87.17
2022-08-14T00:04:34.160Z,87.31
2022-08-14T00:07:23.917Z,87.63
2022-08-14T00:10:51.295Z,87.65
2022-08-14T00:13:31.092Z,87.71
2022-08-14T00:16:40.864Z,87.48
2022-08-14T00:19:27.189Z,87.47
2022-08-14T00:22:44.074Z,87.62
2022-08-14T00:25:41.426Z,87.59
2022-08-14T00:28:34.956Z,87.70
2022-08-14T00:31:44.134Z,87.94
2022-08-14T00:34:37.329Z,88.23
2022-08-14T00:37:36.073Z,88.39
2022-08-14T00:40:33.144Z,88.56
2022-08-14T00:43:22.696Z,88.70
2022-08-14T00:46:32.418Z,89.23
2022-08-14T00:49:21.523Z,89.78
2022-08-14T00:52:18.342Z,90.31
2022-08-14T00:55:08.987Z,90.23
2022-08-14T00:58:27.810Z,90.29
2022-08-14T01:01:21.246Z,90.61
2022-08-14T01:04:50.865Z,90.68
2022-08-14T01:07:23.144Z,90.85
2022-08-14T01:10:12.550Z,91.05
2022-08-14T01:13:01.615Z,91.16
2022-08-14T01:16:01.218Z,91.76
2022-08-14T01:19:09.818Z,92.68
2022-08-14T01:21:59.684Z,93.45
2022-08-14T01:24:50.927Z,93.34
2022-08-14T01:27:53.886Z,93.80
2022-08-14T01:30:45.882Z,93.93
2022-08-14T01:34:07.344Z,94.45
2022-08-14T01:36:50.518Z,93.86
2022-08-14T01:39:39.311Z,93.60
2022-08-14T01:42:44.549Z,93.78
2022-08-14T01:45:40.438Z,93.47
2022-08-14T01:48:33.768Z,93.32
2022-08-14T01:51:28.717Z,93.22
2022-08-14T01:54:22.223Z,93.46
2022-08-14T01:57:11.749Z,94.13
2022-08-14T01:59:59.666Z,94.91
2022-08-14T02:02:48.053Z,95.99
2022-08-14T02:05:41.775Z,96.38
2022-08-14T02:08:35.698Z,96.72
2022-08-14T02:11:26.151Z,97.43
2022-08-14T02:14:14.810Z,97.80
2022-08-14T02:17:23.490Z,97.93
2022-08-14T02:20:14.234Z,98.10
2022-08-14T02:23:02.712Z,98.44
2022-08-14T02:25:54.621Z,98.59
2022-08-14T02:28:57.870Z,98.30
2022-08-14T02:31:56.162Z,98.09
2022-08-14T02:34:46.693Z,97.96
2022-08-14T02:37:47.124Z,97.70
2022-08-14T02:40:37.960Z,97.35
2022-08-14T02:43:36.690Z,97.38
2022-08-14T02:46:27.146Z,97.55
2022-08-14T02:49:26.750Z,97.22
2022-08-14T02:52:56.776Z,97.56
2022-08-14T02:55:32.510Z,98.00
2022-08-14T02:58:29.269Z,98.55
2022-08-14T03:01:24.051Z,99.13
2022-08-14T03:04:15.372Z,99.03
2022-08-14T03:07:07.143Z,99.36
2022-08-14T03:10:27.852Z,99.65
2022-08-14T03:13:06.346Z,99.74
2022-08-14T03:16:20.261Z,99.74
2022-08-14T03:19:14.771Z,100.00
2022-08-14T03:22:09.348Z,100.00
2022-08-14T03:25:07.049Z,100.00
2022-08-14T03:28:32.942Z,100.00
2022-08-14T03:31:26.089Z,100.00
2022-08-14T03:34:24.894Z,100.00
2022-08-14T03:37:38.707Z,100.00
2022-08-14T03:40:31.946Z,100.00
2022-08-14T03:43:20.159Z,100.00
2022-08-14T03:46:51.885Z,100.00
2022-08-14T03:49:28.853Z,100.00
2022-08-14T03:52:39.274Z,100.00
2022-08-14T03:55:26.286Z,100.00
2022-08-14T03:58:23.835Z,100.00
2022-08-14T04:01:25.445Z,100.00
2022-08-14T04:04:17.885Z,100.00
2022-08-14T04:07:06.816Z,100.00
2022-08-14T04:09:54.983Z,100.00
2022-08-14T04:12:51.537Z,100.00
2022-08-14T04:15:56.563Z,100.00
2022-08-14T04:18:53.173Z,100.00
2022-08-14T04:22:03.216Z,100.00
2022-08-14T04:24:49.844Z,100.00
2022-08-14T04:28:01.775Z,100.00
2022-08-14T04:30:49.271Z,100.00
2022-08-14T04:33:37.542Z,100.00
2022-08-14T04:36:25.765Z,100.00
2022-08-14T04:39:32.421Z,100.00
2022-08-14T04:42:47.409Z,100.00
2022-08-14T04:45:43.190Z,100.00
2022-08-14T04:48:42.970Z,100.00
2022-08-14T04:51:47.015Z,100.00
2022-08-14T04:54:41.357Z,100.00
2022-08-14T04:57:30.034Z,100.00
2022-08-14T05:00:18.218Z,100.00
2022-08-14T05:03:07.648Z,100.00
2022-08-14T05:05:58.568Z,100.00
2022-08-14T05:08:56.803Z,99.77
2022-08-14T05:11:48.445Z,99.37
2022-08-14T05:14:45.600Z,98.57
2022-08-14T05:17:53.866Z,97.48
2022-08-14T05:21:56.162Z,96.73
2022-08-14T05:24:04.310Z,95.64
2022-08-14T05:26:52.480Z,94.59
2022-08-14T05:29:45.139Z,93.48
2022-08-14T05:32:33.441Z,91.23
2022-08-14T05:35:22.739Z,88.00
2022-08-14T05:38:22.417Z,82.86
2022-08-14T05:41:20.348Z,77.71
2022-08-14T05:44:09.885Z,71.92
2022-08-14T05:46:59.157Z,68.15
2022-08-14T05:49:48.666Z,64.88
2022-08-14T05:52:48.957Z,59.98
2022-08-14T05:55:37.321Z,57.31
2022-08-14T05:58:40.785Z,53.63
2022-08-14T06:01:31.572Z,50.55
2022-08-14T06:04:20.562Z,48.98
2022-08-14T06:07:09.580Z,47.60
2022-08-14T06:10:02.949Z,46.11
2022-08-14T06:13:05.713Z,44.86
2022-08-14T06:15:54.025Z,44.26
2022-08-14T06:18:42.580Z,42.67
2022-08-14T06:21:30.431Z,42.09
2022-08-14T06:24:21.146Z,41.08
2022-08-14T06:27:10.068Z,40.29
2022-08-14T06:29:59.269Z,39.47
2022-08-14T06:32:52.399Z,38.70
2022-08-14T06:35:41.067Z,38.17
2022-08-14T06:38:29.445Z,37.20
2022-08-14T06:41:20.587Z,36.66
2022-08-14T06:44:09.883Z,35.82
2022-08-14T06:46:58.052Z,35.51
2022-08-14T06:49:56.519Z,34.47
2022-08-14T06:52:50.090Z,33.94
2022-08-14T06:55:40.804Z,33.85
2022-08-14T06:58:46.862Z,33.16
2022-08-14T07:01:56.586Z,32.24
2022-08-14T07:05:05.558Z,31.96
2022-08-14T07:07:54.302Z,32.08
2022-08-14T07:10:43.940Z,31.24
2022-08-14T07:13:32.741Z,30.72
2022-08-14T07:16:20.981Z,30.36
2022-08-14T07:19:20.747Z,29.82
2022-08-14T07:22:17.803Z,29.47
2022-08-14T07:25:09.700Z,29.33
2022-08-14T07:27:57.931Z,29.16
2022-08-14T07:30:50.685Z,28.86
2022-08-14T07:33:49.934Z,28.68
2022-08-14T07:36:38.230Z,28.69
2022-08-14T07:39:47.381Z,28.91
2022-08-14T07:42:37.289Z,28.79
2022-08-14T07:45:32.050Z,28.17
2022-08-14T07:48:20.292Z,27.75
2022-08-14T07:51:13.569Z,27.41
2022-08-14T07:54:03.493Z,27.25
2022-08-14T07:56:53.975Z,26.83
2022-08-14T07:59:46.925Z,26.86
2022-08-14T08:02:40.847Z,26.79
2022-08-14T08:05:29.123Z,26.66
2022-08-14T08:08:27.036Z,26.60
2022-08-14T08:11:16.472Z,26.49
2022-08-14T08:14:16.377Z,26.43
2022-08-14T08:17:06.781Z,25.58
2022-08-14T08:19:54.726Z,25.93
2022-08-14T08:22:47.981Z,25.58
2022-08-14T08:25:40.887Z,24.83
2022-08-14T08:28:59.437Z,25.24
2022-08-14T08:31:52.660Z,24.85
2022-08-14T08:34:47.012Z,24.37
2022-08-14T08:37:40.175Z,24.25
2022-08-14T08:40:42.325Z,24.50
2022-08-14T08:43:35.210Z,23.97
2022-08-14T08:46:24.281Z,24.18
2022-08-14T08:49:12.346Z,23.68
2022-08-14T08:52:05.684Z,23.91
2022-08-14T08:54:55.183Z,23.68
2022-08-14T08:57:44.358Z,23.67
2022-08-14T09:00:36.762Z,23.31
2022-08-14T09:03:32.304Z,23.23
2022-08-14T09:07:00.184Z,23.53
2022-08-14T09:09:33.952Z,23.42
2022-08-14T09:12:42.857Z,23.73
2022-08-14T09:15:42.391Z,23.71
2022-08-14T09:18:30.596Z,23.24
2022-08-14T09:21:20.251Z,23.37
2022-08-14T09:24:28.923Z,23.24
2022-08-14T09:27:22.812Z,23.52
2022-08-14T09:30:31.525Z,23.21
2022-08-14T09:34:00.621Z,22.78
2022-08-14T09:37:20.367Z,22.50
2022-08-14T09:40:29.265Z,22.62
2022-08-14T09:43:45.704Z,22.66
2022-08-14T09:46:36.944Z,23.05
2022-08-14T09:49:40.004Z,23.43
2022-08-14T09:52:33.771Z,23.30
2022-08-14T09:55:26.069Z,22.53
2022-08-14T09:58:23.103Z,22.94
2022-08-14T10:01:21.108Z,22.68
2022-08-14T10:04:39.224Z,23.08
2022-08-14T10:07:36.124Z,23.11
2022-08-14T10:10:37.633Z,22.89
2022-08-14T10:13:27.081Z,23.03
2022-08-14T10:16:44.631Z,22.91
2022-08-14T10:19:35.301Z,22.74
2022-08-14T10:23:12.782Z,22.72
2022-08-14T10:25:48.833Z,22.46
2022-08-14T10:29:17.601Z,22.10
2022-08-14T10:32:01.462Z,22.68
2022-08-14T10:34:52.544Z,23.24
2022-08-14T10:37:46.746Z,23.78
2022-08-14T10:40:43.462Z,24.33
2022-08-14T10:43:32.827Z,25.10
2022-08-14T10:47:36.835Z,25.35
2022-08-14T10:49:32.669Z,24.65
2022-08-14T10:52:27.577Z,24.65
2022-08-14T10:55:20.882Z,24.49
2022-08-14T10:58:14.709Z,24.54
2022-08-14T11:01:08.002Z,24.28
2022-08-14T11:03:57.293Z,24.24
2022-08-14T11:06:56.908Z,23.95
2022-08-14T11:09:59.372Z,23.86
2022-08-14T11:12:50.665Z,24.18
2022-08-14T11:15:39.001Z,24.05
2022-08-14T11:18:40.085Z,23.62
2022-08-14T11:21:30.456Z,23.90
2022-08-14T11:24:54.863Z,24.22
2022-08-14T11:27:35.244Z,24.52
2022-08-14T11:30:50.743Z,24.81
2022-08-14T11:33:37.896Z,25.68
2022-08-14T11:36:57.212Z,26.26
2022-08-14T11:39:38.199Z,26.65
2022-08-14T11:42:58.187Z,27.62
2022-08-14T11:45:40.695Z,28.11
2022-08-14T11:49:02.018Z,28.68
2022-08-14T11:51:52.906Z,29.45
2022-08-14T11:54:43.082Z,30.03
2022-08-14T11:57:32.610Z,31.16
2022-08-14T12:00:21.201Z,32.36
2022-08-14T12:03:27.164Z,33.59
2022-08-14T12:06:38.557Z,34.53
2022-08-14T12:09:32.556Z,35.93
2022-08-14T12:12:35.919Z,37.25
2022-08-14T12:15:44.763Z,38.50
2022-08-14T12:18:36.387Z,39.06
2022-08-14T12:21:32.214Z,40.20
2022-08-14T12:24:36.097Z,40.79
2022-08-14T12:27:59.168Z,41.09
2022-08-14T12:30:53.523Z,41.32
2022-08-14T12:34:00.178Z,41.62
2022-08-14T12:36:48.098Z,42.32
2022-08-14T12:39:39.724Z,42.28
2022-08-14T12:42:40.709Z,42.40
2022-08-14T12:45:36.093Z,42.77
2022-08-14T12:48:31.882Z,42.29
2022-08-14T12:51:27.218Z,41.97
2022-08-14T12:54:27.369Z,41.72
2022-08-14T12:57:20.179Z,42.05
2022-08-14T13:00:24.059Z,42.26
2022-08-14T13:03:25.396Z,42.50
2022-08-14T13:06:16.668Z,42.82
2022-08-14T13:09:11.300Z,43.07
2022-08-14T13:12:31.724Z,43.78
2022-08-14T13:15:17.998Z,44.22
2022-08-14T13:18:10.688Z,44.85
2022-08-14T13:21:02.266Z,45.03
2022-08-14T13:23:50.990Z,45.28
2022-08-14T13:26:47.499Z,45.72
2022-08-14T13:29:46.734Z,46.03
2022-08-14T13:32:41.053Z,46.49
2022-08-14T13:35:29.194Z,46.82
2022-08-14T13:38:22.198Z,47.08
2022-08-14T13:41:11.810Z,47.41
2022-08-14T13:44:00.903Z,47.44
2022-08-14T13:46:49.843Z,47.69
2022-08-14T13:49:56.963Z,47.81
2022-08-14T13:52:56.220Z,48.00
2022-08-14T13:55:52.109Z,48.84
2022-08-14T13:58:47.005Z,49.28
2022-08-14T14:01:43.957Z,49.41
2022-08-14T14:04:33.519Z,49.39
2022-08-14T14:07:23.605Z,49.41
2022-08-14T14:10:13.680Z,49.58
2022-08-14T14:13:04.663Z,49.77
2022-08-14T14:15:58.250Z,50.05
2022-08-14T14:18:52.275Z,50.31
2022-08-14T14:21:41.784Z,50.41
2022-08-14T14:24:34.812Z,50.55
2022-08-14T14:27:40.753Z,50.63
2022-08-14T14:30:53.602Z,50.91
2022-08-14T14:33:49.087Z,50.96
2022-08-14T14:36:37.815Z,51.10
2022-08-14T14:39:29.317Z,50.81
2022-08-14T14:42:31.903Z,51.00
2022-08-14T14:45:23.642Z,51.15
2022-08-14T14:48:12.718Z,51.26
2022-08-14T14:51:04.224Z,51.38
2022-08-14T14:53:53.297Z,51.14
2022-08-14T14:56:49.459Z,51.40
2022-08-14T14:59:40.700Z,51.34
2022-08-14T15:02:41.980Z,51.79
2022-08-14T15:05:30.943Z,52.21
2022-08-14T15:08:26.403Z,52.66
2022-08-14T15:11:32.066Z,52.47
2022-08-14T15:14:55.707Z,52.46
2022-08-14T15:17:41.197Z,52.55
2022-08-14T15:20:31.235Z,52.90
2022-08-14T15:23:22.400Z,53.33
2022-08-14T15:26:13.441Z,53.36
2022-08-14T15:29:15.074Z,53.73
2022-08-14T15:32:03.009Z,54.10
2022-08-14T15:34:58.330Z,54.21
2022-08-14T15:37:46.563Z,54.70
2022-08-14T15:40:43.509Z,55.30
2022-08-14T15:43:34.939Z,55.43
2022-08-14T15:46:43.396Z,55.42
2022-08-14T15:49:35.141Z,56.28
2022-08-14T15:52:32.645Z,56.37
2022-08-14T15:55:23.509Z,56.83
2022-08-14T15:58:14.468Z,57.18
2022-08-14T16:01:43.688Z,57.56
2022-08-14T16:04:30.685Z,58.38
2022-08-14T16:07:22.297Z,58.70
2022-08-14T16:10:28.857Z,58.88
2022-08-14T16:13:39.236Z,59.21
2022-08-14T16:16:34.674Z,59.34
2022-08-14T16:19:43.924Z,59.62
2022-08-14T16:25:45.334Z,60.11
2022-08-14T16:28:36.358Z,59.85
2022-08-14T16:31:24.836Z,60.08
2022-08-14T16:34:44.189Z,60.06
2022-08-14T16:37:35.398Z,60.20
2022-08-14T16:40:24.057Z,59.52
2022-08-14T16:43:15.503Z,60.33
2022-08-14T16:46:06.935Z,60.02
2022-08-14T16:48:58.515Z,59.52
2022-08-14T16:51:52.618Z,59.41
2022-08-14T16:54:45.086Z,59.24
2022-08-14T16:57:47.589Z,59.24
2022-08-14T17:00:44.148Z,58.96
2022-08-14T17:03:40.879Z,58.48
2022-08-14T17:06:48.739Z,58.44
2022-08-14T17:09:49.811Z,58.07
2022-08-14T17:12:38.308Z,58.19
2022-08-14T17:15:26.990Z,59.11
2022-08-14T17:18:15.180Z,60.98
2022-08-14T17:21:37.467Z,55.62
2022-08-14T17:24:51.420Z,51.35
2022-08-14T17:27:34.058Z,52.41
2022-08-14T17:30:32.527Z,71.24
2022-08-14T17:33:33.671Z,79.43
2022-08-14T17:36:31.784Z,84.97
2022-08-14T17:39:23.838Z,89.70
2022-08-14T17:42:13.354Z,93.46
2022-08-14T17:45:02.005Z,97.07
2022-08-14T17:47:51.349Z,98.96
2022-08-14T17:51:00.404Z,99.21
2022-08-14T17:53:52.733Z,99.96
2022-08-14T17:56:45.383Z,100.00
2022-08-14T17:59:44.723Z,100.00
2022-08-14T18:02:34.060Z,100.00
2022-08-14T18:06:09.636Z,100.00
2022-08-14T18:08:40.894Z,100.00
2022-08-14T18:11:45.565Z,100.00
2022-08-14T18:14:48.350Z,100.00
2022-08-14T18:17:40.949Z,100.00
2022-08-14T18:21:41.869Z,100.00
2022-08-14T18:23:41.976Z,100.00
2022-08-14T18:26:37.159Z,100.00
2022-08-14T18:29:26.556Z,100.00
2022-08-14T18:32:32.048Z,100.00
2022-08-14T18:35:45.986Z,100.00
2022-08-14T18:38:45.938Z,100.00
2022-08-14T18:41:41.322Z,99.81
2022-08-14T18:44:52.646Z,99.84
2022-08-14T18:48:14.754Z,100.00
2022-08-14T18:51:02.835Z,100.00
2022-08-14T18:54:18.923Z,100.00
2022-08-14T18:57:09.007Z,100.00
2022-08-14T18:59:57.833Z,100.00
2022-08-14T19:02:46.499Z,100.00
2022-08-14T19:05:47.710Z,100.00
2022-08-14T19:08:50.067Z,100.00
2022-08-14T19:11:38.372Z,100.00
2022-08-14T19:14:47.594Z,100.00
2022-08-14T19:18:10.884Z,100.00
2022-08-14T19:21:02.246Z,100.00
2022-08-14T19:24:27.494Z,100.00
2022-08-14T19:27:26.299Z,100.00
2022-08-14T19:30:20.030Z,100.00
2022-08-14T19:33:45.798Z,100.00
2022-08-14T19:37:05.327Z,100.00
2022-08-14T19:39:56.614Z,100.00
2022-08-14T19:42:47.448Z,100.00
2022-08-14T19:45:40.459Z,100.00
2022-08-14T19:48:28.497Z,100.00
2022-08-14T19:51:16.747Z,100.00
2022-08-14T19:54:13.310Z,100.00
2022-08-14T19:57:04.039Z,100.00
2022-08-14T20:00:28.109Z,100.00
2022-08-14T20:03:23.176Z,100.00
2022-08-14T20:06:13.094Z,100.00
2022-08-14T20:11:03.834Z,100.00
2022-08-14T20:12:29.204Z,100.00
2022-08-14T20:15:47.115Z,100.00
2022-08-14T20:18:49.280Z,100.00
2022-08-14T20:21:57.986Z,100.00
2022-08-14T20:24:50.038Z,100.00
2022-08-14T20:27:40.010Z,100.00
2022-08-14T20:30:33.741Z,100.00
2022-08-14T20:33:24.761Z,100.00
2022-08-14T20:36:15.159Z,100.00
2022-08-14T20:39:15.480Z,100.00
2022-08-14T20:42:33.322Z,100.00
2022-08-14T20:45:24.093Z,100.00
2022-08-14T20:48:52.972Z,100.00
2022-08-14T20:51:43.631Z,99.89
2022-08-14T20:54:50.370Z,99.78
2022-08-14T20:57:43.509Z,99.94
2022-08-14T21:00:52.250Z,99.98
2022-08-14T21:03:57.135Z,100.00
2022-08-14T21:07:23.139Z,100.00
2022-08-14T21:10:33.782Z,99.99
2022-08-14T21:14:08.731Z,100.00
2022-08-14T21:16:35.830Z,99.96
2022-08-14T21:19:26.909Z,99.59
2022-08-14T21:22:15.012Z,99.31
2022-08-14T21:25:08.726Z,98.79
2022-08-14T21:28:03.231Z,98.37
2022-08-14T21:30:55.399Z,98.61
2022-08-14T21:33:43.243Z,98.10
2022-08-14T21:36:31.673Z,98.63
2022-08-14T21:39:22.325Z,99.15
2022-08-14T21:42:12.868Z,99.32
2022-08-14T21:45:08.592Z,99.58
2022-08-14T21:47:56.668Z,99.65
2022-08-14T21:51:01.992Z,99.88
2022-08-14T21:54:04.109Z,99.49
2022-08-14T21:56:56.931Z,99.58
2022-08-14T21:59:46.183Z,99.20
2022-08-14T22:02:34.534Z,99.84
2022-08-14T22:05:23.073Z,100.00
2022-08-14T22:08:16.134Z,99.99
2022-08-14T22:11:05.512Z,100.00
2022-08-14T22:14:02.411Z,100.00
2022-08-14T22:17:13.225Z,100.00
2022-08-14T22:20:10.704Z,100.00
2022-08-14T22:23:04.505Z,100.00
2022-08-14T22:25:53.658Z,100.00
2022-08-14T22:28:45.006Z,100.00
2022-08-14T22:31:40.024Z,100.00
2022-08-14T22:34:31.975Z,100.00
2022-08-14T22:37:20.266Z,100.00
2022-08-14T22:40:45.803Z,100.00
2022-08-14T22:43:19.928Z,100.00
2022-08-14T22:46:14.707Z,100.00
2022-08-14T22:49:16.126Z,100.00
2022-08-14T22:52:31.569Z,100.00
2022-08-14T22:55:22.652Z,100.00
2022-08-14T22:58:10.592Z,100.00
2022-08-14T23:01:12.206Z,100.00
2022-08-14T23:04:01.493Z,100.00
2022-08-14T23:07:03.697Z,100.00
2022-08-14T23:09:57.770Z,100.00
2022-08-14T23:13:07.869Z,100.00
2022-08-14T23:15:56.124Z,100.00
2022-08-14T23:18:45.626Z,100.00
2022-08-14T23:21:33.982Z,100.00
2022-08-14T23:24:26.962Z,100.00
2022-08-14T23:27:20.929Z,100.00
2022-08-14T23:30:34.186Z,100.00
2022-08-14T23:33:23.476Z,100.00
2022-08-14T23:36:32.710Z,100.00
2022-08-14T23:39:32.696Z,100.00
2022-08-14T23:42:22.018Z,100.00
2022-08-14T23:45:36.442Z,100.00
2022-08-14T23:48:28.124Z,100.00
2022-08-14T23:51:19.943Z,100.00
2022-08-14T23:54:48.895Z,100.00
2022-08-14T23:57:15.981Z,100.00
